Time;durP1;ratioP1;P1;durP2;ratioP2;P2;SDS_P1;SDS_P2;PMS_P1;PMS_P2;Temp;Humidity;BMP_temperature;BMP_pressure;BME280_temperature;BME280_humidity;BME280_pressure;Samples;Min_cycle;Max_cycle;Signal;HPM_P1;HPM_P2
2022/03/27 00:01:10;;;;;;;6.63;4.80;;;7.60;99.90;;;;;;5031696;28;20231;-71
2022/03/27 00:03:35;;;;;;;6.30;5.20;;;7.40;99.90;;;;;;5031860;28;20262;-71
2022/03/27 00:06:01;;;;;;;7.73;5.47;;;7.20;99.90;;;;;;5031563;28;20191;-72
2022/03/27 00:08:27;;;;;;;5.70;5.10;;;7.00;99.90;;;;;;5031588;28;20253;-71
2022/03/27 00:13:37;;;;;;;6.73;6.07;;;7.10;99.90;;;;;;5031362;28;20931;-70
2022/03/27 00:16:03;;;;;;;5.53;3.77;;;7.00;99.90;;;;;;5031264;28;20418;-71
2022/03/27 00:18:28;;;;;;;9.07;5.07;;;7.00;99.90;;;;;;5031671;28;20678;-71
2022/03/27 00:20:53;;;;;;;5.77;4.53;;;7.00;99.90;;;;;;5031472;28;20302;-71
2022/03/27 00:23:19;;;;;;;5.87;4.23;;;7.00;99.90;;;;;;5031656;28;20187;-71
2022/03/27 00:25:45;;;;;;;6.87;5.30;;;7.10;99.90;;;;;;5031396;28;20180;-71
2022/03/27 00:28:11;;;;;;;6.93;4.87;;;6.90;99.90;;;;;;5031564;28;20208;-70
2022/03/27 00:30:38;;;;;;;5.83;4.53;;;6.80;99.90;;;;;;5031223;28;20816;-70
2022/03/27 00:33:03;;;;;;;8.60;5.33;;;6.80;99.90;;;;;;5031573;28;20423;-70
2022/03/27 00:35:29;;;;;;;7.77;5.87;;;6.80;99.90;;;;;;5031330;28;20414;-70
2022/03/27 00:37:55;;;;;;;6.80;5.40;;;6.70;99.90;;;;;;5031195;28;20263;-70
2022/03/27 00:40:20;;;;;;;7.03;6.30;;;6.60;99.90;;;;;;5032739;28;20690;-72
2022/03/27 00:42:46;;;;;;;9.27;5.40;;;6.70;99.90;;;;;;5033542;28;20207;-72
2022/03/27 00:45:12;;;;;;;9.50;5.20;;;6.90;99.90;;;;;;5034708;28;20164;-70
2022/03/27 00:47:38;;;;;;;9.97;6.10;;;7.00;99.90;;;;;;5034882;28;20885;-71
2022/03/27 00:50:04;;;;;;;8.73;7.20;;;7.00;99.90;;;;;;5035001;28;20167;-71
2022/03/27 00:52:30;;;;;;;5.80;4.53;;;6.80;99.90;;;;;;5034602;28;20700;-71
2022/03/27 00:54:56;;;;;;;5.30;4.80;;;6.80;99.90;;;;;;5034664;28;20399;-71
2022/03/27 00:57:21;;;;;;;11.30;6.37;;;6.80;99.90;;;;;;5034643;28;20638;-71
2022/03/27 00:59:47;;;;;;;6.57;5.87;;;6.70;99.90;;;;;;5034639;28;20556;-71
2022/03/27 01:02:14;;;;;;;6.40;4.70;;;6.80;99.90;;;;;;5034702;28;20438;-71
2022/03/27 01:04:43;;;;;;;8.10;5.27;;;6.80;99.90;;;;;;5034534;28;20553;-71
2022/03/27 01:07:16;;;;;;;6.03;5.17;;;6.80;99.90;;;;;;5034511;28;20481;-71
2022/03/27 01:09:41;;;;;;;7.60;5.80;;;6.70;99.90;;;;;;5034693;28;20900;-71
2022/03/27 01:12:20;;;;;;;10.13;6.63;;;6.70;99.90;;;;;;5034394;28;20552;-71
2022/03/27 01:14:47;;;;;;;9.13;6.20;;;6.70;99.90;;;;;;5034705;28;20203;-71
2022/03/27 01:17:18;;;;;;;6.80;5.37;;;6.70;99.90;;;;;;5034391;28;20433;-71
2022/03/27 01:19:49;;;;;;;5.90;4.43;;;6.50;99.90;;;;;;5034554;28;20460;-71
2022/03/27 01:22:16;;;;;;;5.37;4.87;;;6.80;99.90;;;;;;5032877;28;20458;-71
2022/03/27 01:24:43;;;;;;;6.40;5.43;;;6.70;99.90;;;;;;5033921;28;20417;-71
2022/03/27 01:27:08;;;;;;;4.73;4.33;;;6.90;99.90;;;;;;5034332;28;20859;-71
2022/03/27 01:29:34;;;;;;;4.97;4.43;;;7.00;99.90;;;;;;5034295;28;20457;-70
2022/03/27 01:32:00;;;;;;;6.20;5.60;;;7.00;99.90;;;;;;5034118;28;20211;-71
2022/03/27 01:34:26;;;;;;;6.33;5.47;;;7.10;99.90;;;;;;5032934;28;20168;-70
2022/03/27 01:36:51;;;;;;;6.20;5.00;;;7.00;99.90;;;;;;5034312;28;20417;-71
2022/03/27 01:39:18;;;;;;;6.63;5.50;;;6.80;99.90;;;;;;5034099;28;20541;-70
2022/03/27 01:41:44;;;;;;;6.00;5.10;;;6.90;99.90;;;;;;5033684;28;20426;-71
2022/03/27 01:44:15;;;;;;;5.77;5.23;;;6.80;99.90;;;;;;5033836;28;20816;-71
2022/03/27 01:46:42;;;;;;;7.03;5.60;;;6.90;99.90;;;;;;5033668;28;20898;-71
2022/03/27 01:49:09;;;;;;;4.80;4.07;;;6.90;99.90;;;;;;5032418;28;20493;-70
2022/03/27 01:51:36;;;;;;;8.87;7.47;;;6.70;99.90;;;;;;5033059;28;20433;-71
2022/03/27 01:54:03;;;;;;;8.13;4.83;;;6.70;99.90;;;;;;5034084;28;20899;-70
2022/03/27 01:56:28;;;;;;;6.77;4.33;;;6.50;99.90;;;;;;5033427;28;20494;-71
2022/03/27 01:58:54;;;;;;;5.27;4.70;;;6.70;99.90;;;;;;5033949;28;20502;-71
2022/03/27 02:01:20;;;;;;;7.40;6.70;;;6.60;99.90;;;;;;5033685;28;20670;-70
2022/03/27 02:03:47;;;;;;;7.03;5.63;;;6.50;99.90;;;;;;5033629;28;20653;-70
2022/03/27 02:06:12;;;;;;;7.30;5.70;;;6.50;99.90;;;;;;5033503;28;20545;-70
2022/03/27 02:08:38;;;;;;;6.70;4.73;;;6.40;99.90;;;;;;5033679;28;20556;-70
2022/03/27 02:11:05;;;;;;;5.60;4.90;;;6.30;99.90;;;;;;5033335;28;20430;-70
2022/03/27 02:13:30;;;;;;;7.00;4.83;;;6.70;99.90;;;;;;5033423;28;20463;-70
2022/03/27 02:15:58;;;;;;;10.50;7.07;;;6.50;99.90;;;;;;5031978;28;20968;-72
2022/03/27 02:18:28;;;;;;;7.63;5.80;;;6.30;99.90;;;;;;5033736;28;20253;-71
2022/03/27 02:20:54;;;;;;;7.70;5.50;;;6.40;99.90;;;;;;5032941;28;20966;-71
2022/03/27 02:23:21;;;;;;;10.80;6.03;;;6.30;99.90;;;;;;5033011;28;20417;-71
2022/03/27 02:25:46;;;;;;;9.47;6.10;;;6.50;99.90;;;;;;5032854;28;20417;-71
2022/03/27 02:28:12;;;;;;;7.30;5.93;;;6.40;99.90;;;;;;5031940;28;20411;-71
2022/03/27 02:30:37;;;;;;;9.47;6.40;;;6.40;99.90;;;;;;5033215;28;20262;-71
2022/03/27 02:33:03;;;;;;;8.70;6.57;;;6.60;99.90;;;;;;5033532;28;20203;-71
2022/03/27 02:35:28;;;;;;;9.10;7.17;;;6.50;99.90;;;;;;5032771;28;20234;-71
2022/03/27 02:37:54;;;;;;;9.70;6.60;;;6.40;99.90;;;;;;5033000;28;20179;-70
2022/03/27 02:40:19;;;;;;;7.67;5.70;;;6.30;99.90;;;;;;5032561;28;20172;-71
2022/03/27 02:42:45;;;;;;;7.40;6.60;;;6.50;99.90;;;;;;5032766;28;20171;-70
2022/03/27 02:45:11;;;;;;;8.63;6.40;;;6.50;99.90;;;;;;5032949;28;20172;-71
2022/03/27 02:47:37;;;;;;;8.37;6.57;;;6.30;99.90;;;;;;5032881;28;20660;-71
2022/03/27 02:50:07;;;;;;;6.60;5.87;;;6.10;99.90;;;;;;5032617;28;20225;-69
2022/03/27 02:52:33;;;;;;;7.40;5.30;;;6.20;99.90;;;;;;5032387;28;20529;-70
2022/03/27 02:54:58;;;;;;;8.80;6.40;;;6.40;99.90;;;;;;5032247;28;20885;-70
2022/03/27 02:57:24;;;;;;;7.60;6.87;;;6.40;99.90;;;;;;5032681;28;20447;-70
2022/03/27 02:59:53;;;;;;;7.67;5.33;;;6.20;99.90;;;;;;5032647;28;20172;-70
2022/03/27 03:02:20;;;;;;;7.90;7.10;;;6.00;99.90;;;;;;5032226;28;20449;-70
2022/03/27 03:04:46;;;;;;;7.87;7.07;;;5.90;99.90;;;;;;5031295;28;20410;-70
2022/03/27 03:07:11;;;;;;;12.83;8.10;;;5.80;99.90;;;;;;5032130;28;20446;-70
2022/03/27 03:09:37;;;;;;;9.47;6.43;;;5.80;99.90;;;;;;5032077;28;20422;-69
2022/03/27 03:12:03;;;;;;;8.20;5.67;;;5.70;99.90;;;;;;5032164;28;20195;-69
2022/03/27 03:14:29;;;;;;;10.93;8.27;;;5.70;99.90;;;;;;5032062;28;20523;-70
2022/03/27 03:16:55;;;;;;;10.90;5.37;;;5.60;99.90;;;;;;5032207;28;20489;-69
2022/03/27 03:19:21;;;;;;;9.10;7.33;;;5.80;99.90;;;;;;5031920;28;20171;-70
2022/03/27 03:21:46;;;;;;;9.17;6.10;;;5.80;99.90;;;;;;5046581;22;20948;-70
2022/03/27 03:24:12;;;;;;;9.63;8.70;;;5.70;99.90;;;;;;5011575;28;20263;-70
2022/03/27 03:26:37;;;;;;;11.17;6.60;;;6.00;99.90;;;;;;5011800;28;20740;-67
2022/03/27 03:29:03;;;;;;;8.90;7.73;;;5.80;99.90;;;;;;5011958;28;20200;-67
2022/03/27 03:31:28;;;;;;;6.57;5.80;;;5.70;99.90;;;;;;5011701;28;20196;-68
2022/03/27 03:33:53;;;;;;;12.30;6.90;;;5.60;99.90;;;;;;5011958;28;20176;-68
2022/03/27 03:36:19;;;;;;;9.47;6.47;;;5.70;99.90;;;;;;5011937;28;20179;-67
2022/03/27 03:38:44;;;;;;;16.00;7.63;;;5.70;99.90;;;;;;5011480;28;20211;-68
2022/03/27 03:41:10;;;;;;;14.40;7.40;;;5.60;99.90;;;;;;5011686;28;20226;-68
2022/03/27 03:43:38;;;;;;;10.50;5.87;;;5.60;99.90;;;;;;5011652;28;20173;-68
2022/03/27 03:46:04;;;;;;;8.07;5.77;;;5.60;99.90;;;;;;5011599;28;20697;-68
2022/03/27 03:48:30;;;;;;;10.67;6.70;;;5.80;99.90;;;;;;5012332;28;20399;-68
2022/03/27 03:50:56;;;;;;;10.17;9.13;;;6.00;99.90;;;;;;5011564;28;20199;-68
2022/03/27 03:53:22;;;;;;;11.07;8.00;;;5.80;99.90;;;;;;5011791;28;20439;-67
2022/03/27 03:55:47;;;;;;;9.17;7.03;;;5.70;99.90;;;;;;5011599;28;20414;-67
2022/03/27 03:58:14;;;;;;;10.10;6.60;;;5.60;99.90;;;;;;5011582;28;20160;-68
2022/03/27 04:00:39;;;;;;;9.10;7.93;;;5.80;99.90;;;;;;5011540;28;20171;-68
2022/03/27 04:03:05;;;;;;;9.37;6.37;;;6.00;99.90;;;;;;5011500;28;20431;-69
2022/03/27 04:05:30;;;;;;;7.20;6.50;;;6.20;99.90;;;;;;5010200;28;20164;-68
2022/03/27 04:07:56;;;;;;;7.43;6.73;;;5.90;99.90;;;;;;5011234;28;20274;-68
2022/03/27 04:10:21;;;;;;;11.97;6.70;;;5.80;99.90;;;;;;5011534;28;20168;-69
2022/03/27 04:12:47;;;;;;;7.33;6.67;;;5.70;99.90;;;;;;5011267;28;20234;-68
2022/03/27 04:15:12;;;;;;;11.20;7.93;;;5.70;99.90;;;;;;5012900;28;20165;-68
2022/03/27 04:17:45;;;;;;;10.30;6.57;;;5.70;99.90;;;;;;5015135;28;20172;-68
2022/03/27 04:20:12;;;;;;;7.50;6.07;;;5.80;99.90;;;;;;5015045;28;20181;-68
2022/03/27 04:22:42;;;;;;;9.23;8.00;;;5.70;99.90;;;;;;5014908;28;20526;-69
2022/03/27 04:25:09;;;;;;;15.03;7.40;;;5.80;99.90;;;;;;5014990;28;20419;-68
2022/03/27 04:27:35;;;;;;;11.00;7.90;;;5.80;99.90;;;;;;5015054;28;20505;-68
2022/03/27 04:30:08;;;;;;;13.00;6.47;;;5.60;99.90;;;;;;5015184;28;20422;-69
2022/03/27 04:32:34;;;;;;;9.70;7.07;;;5.40;99.90;;;;;;5015221;28;20430;-69
2022/03/27 04:35:00;;;;;;;7.60;6.80;;;5.30;99.90;;;;;;5015073;28;20415;-69
2022/03/27 04:37:25;;;;;;;9.60;5.93;;;5.30;99.90;;;;;;5015267;28;20462;-69
2022/03/27 04:39:51;;;;;;;9.60;6.83;;;5.30;99.90;;;;;;5015013;28;20459;-69
2022/03/27 04:42:16;;;;;;;11.07;7.43;;;5.30;99.90;;;;;;5014945;28;20192;-69
2022/03/27 04:44:42;;;;;;;6.00;5.50;;;5.40;99.90;;;;;;5015322;28;20243;-69
2022/03/27 04:47:07;;;;;;;8.70;5.93;;;5.30;99.90;;;;;;5014911;28;20207;-68
2022/03/27 04:49:33;;;;;;;10.37;7.83;;;5.30;99.90;;;;;;5014670;28;20186;-69
2022/03/27 04:51:58;;;;;;;10.27;7.47;;;5.30;99.90;;;;;;5014516;28;20192;-68
2022/03/27 04:54:24;;;;;;;8.50;6.60;;;5.20;99.90;;;;;;5014458;28;20248;-68
2022/03/27 04:56:50;;;;;;;8.63;4.63;;;5.20;99.90;;;;;;5014567;28;20663;-68
2022/03/27 04:59:15;;;;;;;7.93;6.57;;;5.30;99.90;;;;;;5014532;28;20168;-69
2022/03/27 05:01:42;;;;;;;9.47;8.20;;;5.20;99.90;;;;;;5014281;28;20423;-69
2022/03/27 05:04:08;;;;;;;9.87;6.57;;;5.30;99.90;;;;;;5014323;28;20657;-68
2022/03/27 05:06:34;;;;;;;9.87;6.53;;;5.40;99.90;;;;;;5014277;28;20929;-68
2022/03/27 05:08:59;;;;;;;11.10;7.20;;;5.40;99.90;;;;;;5014788;28;20411;-69
2022/03/27 05:11:28;;;;;;;6.70;6.00;;;5.60;99.90;;;;;;5014531;28;20188;-68
2022/03/27 05:13:54;;;;;;;10.30;7.60;;;5.50;99.90;;;;;;5014401;28;20180;-68
2022/03/27 05:16:19;;;;;;;7.73;5.93;;;5.90;99.90;;;;;;5014216;28;20423;-69
2022/03/27 05:18:45;;;;;;;7.33;6.17;;;5.80;99.90;;;;;;5013873;28;20423;-68
2022/03/27 05:21:10;;;;;;;9.83;6.83;;;5.80;99.90;;;;;;5013854;28;20204;-68
2022/03/27 05:23:36;;;;;;;10.10;6.70;;;5.80;99.90;;;;;;5014012;28;20180;-69
2022/03/27 05:26:02;;;;;;;10.70;6.70;;;5.70;99.90;;;;;;5013326;28;20204;-69
2022/03/27 05:28:27;;;;;;;9.37;5.67;;;5.90;99.90;;;;;;5013806;28;20411;-68
2022/03/27 05:30:55;;;;;;;8.07;7.13;;;6.10;99.90;;;;;;5013925;28;20208;-68
2022/03/27 05:33:20;;;;;;;9.50;6.87;;;6.20;99.90;;;;;;5013831;28;20186;-68
2022/03/27 05:35:46;;;;;;;11.40;7.17;;;6.50;99.90;;;;;;5014008;28;20958;-68
2022/03/27 05:38:11;;;;;;;8.87;6.93;;;6.40;99.90;;;;;;5013853;28;20172;-69
2022/03/27 05:40:37;;;;;;;9.17;6.73;;;6.40;99.90;;;;;;5013922;28;20169;-69
2022/03/27 05:43:02;;;;;;;9.07;7.77;;;6.60;99.90;;;;;;5013605;28;20231;-69
2022/03/27 05:45:28;;;;;;;12.37;7.57;;;6.50;99.90;;;;;;5013527;28;20200;-67
2022/03/27 05:47:54;;;;;;;8.47;7.07;;;6.60;99.90;;;;;;5013328;28;20196;-67
2022/03/27 05:50:22;;;;;;;10.50;8.13;;;6.80;99.90;;;;;;5013515;28;20190;-68
2022/03/27 05:52:49;;;;;;;12.50;8.27;;;6.90;99.90;;;;;;5013401;28;20421;-67
2022/03/27 05:55:15;;;;;;;8.80;7.60;;;7.00;99.90;;;;;;5013249;28;20407;-67
2022/03/27 05:57:42;;;;;;;9.93;7.53;;;7.30;99.90;;;;;;5013286;28;20437;-68
2022/03/27 06:00:09;;;;;;;9.20;7.37;;;8.00;99.90;;;;;;5012070;28;20438;-67
2022/03/27 06:02:35;;;;;;;6.70;6.07;;;8.30;99.90;;;;;;5013025;28;20971;-68
2022/03/27 06:05:00;;;;;;;10.13;6.50;;;8.80;99.90;;;;;;5013283;28;20494;-68
2022/03/27 06:07:26;;;;;;;8.30;6.10;;;9.00;99.90;;;;;;5014007;28;20552;-68
2022/03/27 06:09:51;;;;;;;10.67;6.70;;;8.90;99.90;;;;;;5013342;28;20180;-68
2022/03/27 06:12:17;;;;;;;8.00;5.73;;;9.20;99.90;;;;;;5013088;28;20188;-68
2022/03/27 06:14:42;;;;;;;7.70;6.33;;;9.70;99.90;;;;;;5013093;28;20184;-69
2022/03/27 06:17:08;;;;;;;11.07;6.43;;;9.70;99.90;;;;;;5013157;28;20564;-68
2022/03/27 06:19:34;;;;;;;10.13;7.67;;;9.30;99.90;;;;;;5013212;28;20188;-69
2022/03/27 06:21:59;;;;;;;11.47;6.53;;;9.60;99.90;;;;;;5012763;28;20868;-68
2022/03/27 06:24:25;;;;;;;10.33;6.80;;;10.60;99.90;;;;;;5012980;28;20180;-69
2022/03/27 06:26:51;;;;;;;10.87;6.60;;;11.40;99.90;;;;;;5012801;28;20596;-69
2022/03/27 06:29:17;;;;;;;8.00;7.27;;;11.30;99.90;;;;;;5012814;28;20417;-68
2022/03/27 06:31:43;;;;;;;8.43;6.80;;;11.40;99.90;;;;;;5012649;28;20243;-68
2022/03/27 06:34:08;;;;;;;12.03;7.47;;;11.40;99.90;;;;;;5012959;28;20431;-69
2022/03/27 06:36:34;;;;;;;8.87;7.10;;;11.30;99.90;;;;;;5012951;28;20230;-68
2022/03/27 06:39:01;;;;;;;11.27;9.20;;;11.30;99.90;;;;;;5012710;28;20168;-68
2022/03/27 06:41:26;;;;;;;12.00;7.43;;;11.30;99.90;;;;;;5012399;28;20443;-68
2022/03/27 06:43:52;;;;;;;10.03;8.40;;;11.40;99.90;;;;;;5012572;28;20935;-67
2022/03/27 06:46:17;;;;;;;10.50;6.70;;;11.50;99.90;;;;;;5012379;28;20211;-67
2022/03/27 06:48:44;;;;;;;11.20;7.57;;;11.70;99.90;;;;;;5012483;28;20255;-67
2022/03/27 06:51:10;;;;;;;8.57;7.50;;;11.80;99.90;;;;;;5012531;28;20261;-67
2022/03/27 06:53:36;;;;;;;8.50;7.60;;;11.70;99.90;;;;;;5012556;28;20988;-67
2022/03/27 06:56:01;;;;;;;9.70;7.90;;;11.60;99.90;;;;;;5012434;28;20160;-67
2022/03/27 06:58:26;;;;;;;10.53;7.57;;;12.30;99.90;;;;;;5012724;28;20291;-67
2022/03/27 07:03:36;;;;;;;7.50;6.80;;;12.10;99.90;;;;;;5012408;28;20191;-68
2022/03/27 07:06:02;;;;;;;7.63;6.93;;;12.50;99.90;;;;;;5012414;28;20399;-68
2022/03/27 07:08:27;;;;;;;8.40;7.60;;;13.20;99.90;;;;;;5011426;28;20624;-67
2022/03/27 07:10:53;;;;;;;7.43;6.63;;;13.00;99.90;;;;;;5012458;28;20794;-67
2022/03/27 07:13:19;;;;;;;7.83;6.97;;;13.10;99.90;;;;;;5012259;28;20170;-68
2022/03/27 07:15:46;;;;;;;6.33;5.63;;;13.40;99.90;;;;;;5012386;28;20485;-67
2022/03/27 07:18:13;;;;;;;6.87;6.20;;;13.70;99.90;;;;;;5012242;28;21017;-68
2022/03/27 07:20:41;;;;;;;6.00;5.30;;;14.00;99.90;;;;;;5012241;28;20471;-67
2022/03/27 07:23:09;;;;;;;6.73;6.07;;;13.90;99.90;;;;;;5012254;28;20454;-68
2022/03/27 07:25:36;;;;;;;8.07;5.23;;;13.70;99.90;;;;;;5012217;28;20900;-70
2022/03/27 07:28:04;;;;;;;6.20;5.50;;;13.90;99.90;;;;;;5012153;28;20485;-67
2022/03/27 07:30:30;;;;;;;7.33;6.63;;;13.20;99.90;;;;;;5011724;28;20919;-67
2022/03/27 07:32:55;;;;;;;6.90;6.30;;;13.10;99.90;;;;;;5011763;28;20437;-67
2022/03/27 07:35:21;;;;;;;7.30;6.00;;;13.10;99.90;;;;;;5011776;28;20405;-67
2022/03/27 07:37:47;;;;;;;5.50;5.00;;;13.40;99.90;;;;;;5011753;28;20178;-67
2022/03/27 07:40:14;;;;;;;7.43;5.97;;;13.00;99.90;;;;;;5011779;28;20562;-67
2022/03/27 07:42:42;;;;;;;6.77;6.07;;;13.20;99.90;;;;;;5011812;28;20786;-68
2022/03/27 07:45:09;;;;;;;5.80;5.20;;;13.50;99.90;;;;;;5011809;28;20511;-67
2022/03/27 07:47:35;;;;;;;7.50;5.90;;;14.40;99.90;;;;;;5011672;28;20572;-68
2022/03/27 07:50:02;;;;;;;6.83;5.23;;;13.70;99.90;;;;;;5011273;28;20403;-67
2022/03/27 07:52:28;;;;;;;7.27;6.00;;;13.20;99.90;;;;;;5011495;28;20439;-67
2022/03/27 07:54:54;;;;;;;5.43;4.93;;;14.10;99.90;;;;;;5011508;28;20900;-67
2022/03/27 07:57:20;;;;;;;7.00;6.07;;;14.40;99.90;;;;;;5010389;28;20172;-67
2022/03/27 07:59:47;;;;;;;5.50;4.97;;;14.40;99.90;;;;;;5011940;28;20446;-67
2022/03/27 08:02:13;;;;;;;5.80;5.03;;;14.60;99.90;;;;;;5011492;28;20432;-67
2022/03/27 08:04:38;;;;;;;5.97;5.20;;;14.30;99.90;;;;;;5011737;28;20459;-68
2022/03/27 08:07:04;;;;;;;5.73;5.13;;;15.20;99.90;;;;;;5011665;28;20534;-67
2022/03/27 08:09:29;;;;;;;6.10;5.20;;;14.70;99.90;;;;;;5010154;28;20166;-68
2022/03/27 08:11:55;;;;;;;5.77;5.13;;;14.90;99.90;;;;;;5011339;28;20652;-67
2022/03/27 08:14:21;;;;;;;7.20;6.33;;;14.10;99.90;;;;;;5011655;28;20250;-67
2022/03/27 08:16:46;;;;;;;6.83;5.30;;;14.30;99.90;;;;;;5011446;28;20171;-67
2022/03/27 08:19:12;;;;;;;6.60;4.83;;;15.20;99.90;;;;;;5011424;28;20168;-68
2022/03/27 08:21:39;;;;;;;6.10;5.50;;;17.00;99.90;;;;;;5011182;28;20209;-67
2022/03/27 08:24:05;;;;;;;6.47;5.03;;;15.50;99.90;;;;;;5011636;28;20178;-68
2022/03/27 08:29:15;;;;;;;5.30;4.50;;;16.70;99.90;;;;;;5011631;28;20454;-68
2022/03/27 08:31:41;;;;;;;4.80;4.30;;;16.20;99.90;;;;;;5011056;28;20438;-68
2022/03/27 08:34:06;;;;;;;4.80;4.27;;;17.00;99.90;;;;;;5011286;28;20172;-69
2022/03/27 08:36:32;;;;;;;6.17;4.93;;;15.90;99.90;;;;;;5011255;28;20571;-68
2022/03/27 08:38:57;;;;;;;6.37;5.00;;;15.00;99.90;;;;;;5011882;28;20246;-68
2022/03/27 08:41:23;;;;;;;4.93;4.10;;;14.80;99.90;;;;;;5011248;28;20581;-68
2022/03/27 08:43:58;;;;;;;4.63;4.20;;;14.80;99.90;;;;;;5011002;28;20233;-68
2022/03/27 08:46:25;;;;;;;4.10;3.47;;;15.50;99.90;;;;;;5011072;28;20206;-67
2022/03/27 08:48:51;;;;;;;4.77;4.30;;;17.40;99.90;;;;;;5009699;28;20415;-68
2022/03/27 08:51:34;;;;;;;4.50;4.10;;;17.40;99.90;;;;;;5010709;28;20427;-69
2022/03/27 08:54:13;;;;;;;4.80;4.33;;;16.10;99.90;;;;;;5011268;28;20510;-68
2022/03/27 08:56:38;;;;;;;4.77;4.37;;;15.20;99.90;;;;;;5011225;28;20767;-68
2022/03/27 08:59:08;;;;;;;4.77;3.90;;;14.70;99.90;;;;;;5011094;28;20425;-69
2022/03/27 09:01:34;;;;;;;5.17;4.67;;;14.80;99.90;;;;;;5011501;28;20206;-69
2022/03/27 09:04:00;;;;;;;4.97;4.43;;;17.20;99.90;;;;;;5014809;28;20407;-69
2022/03/27 09:06:25;;;;;;;5.97;4.80;;;16.20;99.90;;;;;;5014726;28;20619;-69
2022/03/27 09:08:54;;;;;;;5.47;4.53;;;16.60;99.90;;;;;;5014744;28;20174;-69
2022/03/27 09:11:22;;;;;;;5.10;4.70;;;16.10;99.90;;;;;;5014509;28;20271;-69
2022/03/27 09:13:49;;;;;;;5.43;4.93;;;15.00;99.90;;;;;;5014537;28;20414;-69
2022/03/27 09:16:16;;;;;;;4.80;4.27;;;15.30;99.90;;;;;;5014046;28;20437;-68
2022/03/27 09:18:43;;;;;;;4.67;4.27;;;15.00;99.90;;;;;;5014430;28;20418;-68
2022/03/27 09:21:09;;;;;;;5.13;4.63;;;14.30;99.90;;;;;;5013827;28;20428;-66
2022/03/27 09:23:35;;;;;;;7.47;5.30;;;14.00;99.90;;;;;;5048189;23;20485;-68
2022/03/27 09:26:04;;;;;;;5.03;3.70;;;16.10;99.90;;;;;;5034015;28;20465;-66
2022/03/27 09:28:38;;;;;;;5.13;4.47;;;15.90;99.90;;;;;;5034534;28;20838;-68
2022/03/27 09:31:14;;;;;;;5.20;4.07;;;16.50;99.90;;;;;;5035907;28;20413;-69
2022/03/27 09:33:48;;;;;;;4.37;3.97;;;16.90;99.90;;;;;;5035363;28;20894;-69
2022/03/27 09:36:21;;;;;;;5.63;4.40;;;15.80;99.90;;;;;;5035287;28;20414;-69
2022/03/27 09:39:13;;;;;;;4.00;3.57;;;15.30;99.90;;;;;;5035592;28;20427;-69
2022/03/27 09:41:52;;;;;;;5.37;4.30;;;16.20;99.90;;;;;;5034208;28;20470;-68
2022/03/27 09:44:30;;;;;;;5.80;4.50;;;16.40;99.90;;;;;;5034164;28;20448;-69
2022/03/27 09:46:59;;;;;;;5.07;4.40;;;16.60;99.90;;;;;;5034022;28;20456;-69
2022/03/27 09:49:48;;;;;;;4.80;4.10;;;15.90;99.90;;;;;;5033774;28;20776;-68
2022/03/27 09:52:19;;;;;;;5.20;3.53;;;16.70;99.90;;;;;;5033619;28;20397;-69
2022/03/27 09:54:57;;;;;;;10.80;8.10;;;17.80;99.90;;;;;;5033583;28;20472;-68
2022/03/27 09:57:25;;;;;;;4.30;3.20;;;17.50;99.90;;;;;;5033658;28;20411;-68
2022/03/27 09:59:52;;;;;;;4.27;3.70;;;16.90;99.90;;;;;;5032134;28;20795;-68
2022/03/27 10:02:30;;;;;;;4.93;4.30;;;17.40;99.90;;;;;;5032318;28;20512;-69
2022/03/27 10:05:06;;;;;;;3.50;3.20;;;16.70;99.90;;;;;;5033655;28;20413;-68
2022/03/27 10:07:37;;;;;;;4.07;3.67;;;16.10;99.90;;;;;;5033348;28;20488;-70
2022/03/27 10:10:06;;;;;;;3.43;3.07;;;15.70;99.90;;;;;;5033559;28;20411;-69
2022/03/27 10:12:34;;;;;;;4.70;3.97;;;15.50;99.90;;;;;;5032834;28;20419;-69
2022/03/27 10:15:04;;;;;;;5.23;4.73;;;15.90;99.90;;;;;;5033489;28;20406;-69
2022/03/27 10:17:32;;;;;;;4.03;3.40;;;15.50;99.90;;;;;;5033233;28;20405;-68
2022/03/27 10:20:06;;;;;;;5.80;4.53;;;15.10;99.90;;;;;;5033249;28;20416;-68
2022/03/27 10:22:35;;;;;;;5.10;4.60;;;14.80;99.90;;;;;;5033083;28;20440;-68
2022/03/27 10:25:03;;;;;;;4.50;3.63;;;14.70;99.90;;;;;;5033108;28;20425;-69
2022/03/27 10:27:30;;;;;;;3.67;3.33;;;15.20;99.90;;;;;;5033250;28;20448;-68
2022/03/27 10:29:58;;;;;;;3.47;3.10;;;15.80;99.90;;;;;;5033507;28;20437;-68
2022/03/27 10:32:24;;;;;;;4.43;3.20;;;15.30;99.90;;;;;;5032907;28;20489;-68
2022/03/27 10:35:26;;;;;;;5.33;3.60;;;15.00;99.90;;;;;;5033046;28;20408;-69
2022/03/27 10:38:32;;;;;;;2.83;2.50;;;14.60;99.90;;;;;;5033130;28;20409;-68
2022/03/27 10:41:16;;;;;;;3.17;2.83;;;14.70;99.90;;;;;;5032887;28;20401;-67
2022/03/27 10:44:00;;;;;;;4.07;2.57;;;13.90;99.90;;;;;;5032802;28;20944;-67
2022/03/27 10:46:28;;;;;;;2.87;2.57;;;14.00;99.90;;;;;;5032958;28;20448;-70
2022/03/27 10:49:16;;;;;;;7.20;5.00;;;14.50;99.90;;;;;;5032858;28;20939;-69
2022/03/27 10:51:43;;;;;;;4.43;3.30;;;14.80;99.90;;;;;;5033287;28;20399;-70
2022/03/27 10:54:19;;;;;;;5.33;2.73;;;14.90;99.90;;;;;;5032805;28;20484;-68
2022/03/27 10:56:53;;;;;;;8.07;3.57;;;14.80;99.90;;;;;;5033067;28;20433;-68
2022/03/27 10:59:24;;;;;;;5.33;3.93;;;14.60;99.90;;;;;;5033434;28;20434;-69
2022/03/27 11:01:59;;;;;;;5.33;3.87;;;14.40;99.90;;;;;;5032390;28;20398;-69
2022/03/27 11:04:38;;;;;;;5.83;3.93;;;14.70;99.90;;;;;;5032133;28;20433;-69
2022/03/27 11:07:16;;;;;;;6.17;3.70;;;14.70;99.90;;;;;;5032571;28;20460;-68
2022/03/27 11:09:44;;;;;;;3.27;3.00;;;15.00;99.90;;;;;;5033183;28;20476;-69
2022/03/27 11:12:25;;;;;;;4.10;2.40;;;14.80;99.90;;;;;;5032482;28;20402;-68
2022/03/27 11:14:56;;;;;;;3.97;2.97;;;14.20;99.90;;;;;;5032244;28;20420;-68
2022/03/27 11:17:32;;;;;;;6.20;3.40;;;14.30;99.90;;;;;;5032539;28;20407;-69
2022/03/27 11:19:59;;;;;;;2.90;2.70;;;14.50;99.90;;;;;;5032437;28;20437;-68
2022/03/27 11:23:04;;;;;;;4.77;3.37;;;14.70;99.90;;;;;;5032025;28;20442;-68
2022/03/27 11:25:46;;;;;;;3.17;2.87;;;14.60;99.90;;;;;;4992292;28;20428;-69
2022/03/27 11:28:20;;;;;;;4.90;3.30;;;14.70;99.90;;;;;;4992457;28;20526;-69
2022/03/27 11:30:53;;;;;;;3.60;3.30;;;14.90;99.90;;;;;;5017192;28;20410;-68
2022/03/27 11:33:26;;;;;;;3.37;2.27;;;15.00;99.90;;;;;;5032340;28;20450;-69
2022/03/27 11:36:01;;;;;;;3.57;2.53;;;15.00;99.90;;;;;;5031839;28;20399;-68
2022/03/27 11:38:31;;;;;;;3.17;2.87;;;15.00;99.90;;;;;;5031973;28;20402;-69
2022/03/27 11:41:26;;;;;;;3.90;3.50;;;14.90;99.90;;;;;;5032101;28;20795;-68
2022/03/27 11:43:52;;;;;;;3.83;2.63;;;14.80;99.90;;;;;;5031583;28;20755;-68
2022/03/27 11:46:26;;;;;;;3.47;2.80;;;15.00;99.90;;;;;;5031419;28;20449;-68
2022/03/27 11:49:00;;;;;;;2.77;2.57;;;15.00;99.90;;;;;;5031753;28;20503;-68
2022/03/27 11:51:27;;;;;;;4.20;3.27;;;15.10;99.90;;;;;;5031671;28;20647;-68
2022/03/27 11:53:55;;;;;;;5.17;2.67;;;15.30;99.90;;;;;;5031705;28;20426;-69
2022/03/27 11:56:23;;;;;;;4.27;3.80;;;15.50;99.90;;;;;;5031586;28;20492;-68
2022/03/27 11:59:03;;;;;;;3.63;2.67;;;15.70;99.90;;;;;;5031315;28;20402;-68
2022/03/27 12:01:29;;;;;;;3.67;2.80;;;15.60;99.90;;;;;;5031860;28;20402;-68
2022/03/27 12:03:59;;;;;;;4.30;3.23;;;15.70;99.90;;;;;;5031575;28;20434;-68
2022/03/27 12:06:28;;;;;;;2.73;2.27;;;15.50;99.90;;;;;;5031396;28;20282;-68
2022/03/27 12:08:55;;;;;;;4.63;3.07;;;15.10;99.90;;;;;;5031416;28;20828;-67
2022/03/27 12:11:23;;;;;;;2.10;1.93;;;15.20;99.90;;;;;;5031083;28;20406;-67
2022/03/27 12:13:49;;;;;;;4.20;1.80;;;15.30;99.60;;;;;;5031217;28;20437;-69
2022/03/27 12:16:26;;;;;;;3.30;2.40;;;15.20;99.30;;;;;;5030929;28;20409;-68
2022/03/27 12:18:53;;;;;;;2.13;1.90;;;15.30;99.70;;;;;;5031371;28;20792;-67
2022/03/27 12:21:20;;;;;;;4.17;2.00;;;15.40;99.80;;;;;;5031380;28;20411;-70
2022/03/27 12:23:51;;;;;;;2.13;1.90;;;15.60;99.70;;;;;;5030923;28;20488;-68
2022/03/27 12:32:00;;;;;;;5.10;2.33;;;15.00;99.90;;;;;;5031723;28;20397;-68
2022/03/27 12:34:26;;;;;;;6.13;1.97;;;15.30;99.90;;;;;;5030966;28;20437;-68
2022/03/27 12:37:12;;;;;;;2.40;1.97;;;15.40;99.80;;;;;;5033877;28;20414;-69
2022/03/27 12:39:48;;;;;;;2.00;1.80;;;15.60;99.00;;;;;;5033655;28;20429;-68
2022/03/27 12:42:31;;;;;;;4.30;2.47;;;15.60;98.30;;;;;;5034872;28;20842;-68
2022/03/27 12:45:24;;;;;;;4.33;2.80;;;15.50;98.10;;;;;;5034941;28;20805;-69
2022/03/27 12:47:58;;;;;;;2.27;2.03;;;15.50;98.20;;;;;;5034991;28;20609;-69
2022/03/27 12:50:39;;;;;;;3.30;1.80;;;15.90;97.50;;;;;;5034883;28;20402;-68
2022/03/27 12:53:11;;;;;;;5.57;3.63;;;15.80;97.30;;;;;;5034562;28;20466;-69
2022/03/27 12:55:42;;;;;;;5.50;3.10;;;15.70;97.20;;;;;;5034650;28;20792;-69
2022/03/27 12:58:08;;;;;;;2.17;1.97;;;15.40;97.80;;;;;;5034725;28;20456;-69
2022/03/27 13:00:34;;;;;;;2.50;2.30;;;15.70;98.20;;;;;;5034814;28;20834;-69
2022/03/27 13:03:20;;;;;;;3.60;2.60;;;15.90;98.30;;;;;;5034520;28;20436;-68
2022/03/27 13:05:56;;;;;;;2.73;2.10;;;15.90;97.80;;;;;;5034601;28;20815;-69
2022/03/27 13:08:33;;;;;;;1.77;1.67;;;16.00;97.90;;;;;;5034565;28;20481;-68
2022/03/27 13:11:03;;;;;;;1.83;1.53;;;15.80;97.30;;;;;;5034760;28;20412;-69